createdAt,value
2022-11-21T00:00:03.637Z,18.9
2022-11-21T00:03:21.846Z,20.9
2022-11-21T00:06:09.114Z,19.8
2022-11-21T00:08:56.700Z,20.7
2022-11-21T00:11:43.918Z,19.9
2022-11-21T00:14:31.077Z,18.7
2022-11-21T00:17:19.325Z,18.4
2022-11-21T00:20:06.570Z,20.3
2022-11-21T00:22:54.414Z,19.8
2022-11-21T00:25:41.594Z,19.7
2022-11-21T00:28:28.895Z,19.5
2022-11-21T00:31:16.286Z,18.6
2022-11-21T00:34:05.211Z,18.9
2022-11-21T00:36:54.186Z,18.8
2022-11-21T00:39:41.591Z,18.4
2022-11-21T00:42:28.842Z,17.8
2022-11-21T00:45:22.744Z,18.6
2022-11-21T00:48:11.556Z,18.9
2022-11-21T00:50:58.877Z,18.8
2022-11-21T00:53:46.406Z,19.6
2022-11-21T00:56:33.701Z,18.1
2022-11-21T00:59:21.000Z,19.9
2022-11-21T01:02:08.343Z,18.9
2022-11-21T01:04:55.837Z,19.3
2022-11-21T01:07:43.230Z,18.1
2022-11-21T01:10:30.557Z,18.8
2022-11-21T01:13:19.269Z,20.2
2022-11-21T01:16:06.594Z,21
2022-11-21T01:18:56.599Z,17.9
2022-11-21T01:21:44.080Z,18.2
2022-11-21T01:24:31.913Z,18
2022-11-21T01:27:19.129Z,17.3
2022-11-21T01:30:06.406Z,18.5
2022-11-21T01:32:54.872Z,17.5
2022-11-21T01:35:42.248Z,18.6
2022-11-21T01:38:29.626Z,17.9
2022-11-21T01:41:18.118Z,17.7
2022-11-21T01:44:07.844Z,17.9
2022-11-21T01:47:04.200Z,19
2022-11-21T01:49:51.679Z,18.3
2022-11-21T01:52:41.201Z,17.3
2022-11-21T01:55:28.571Z,17.7
2022-11-21T01:58:15.985Z,17.8
2022-11-21T02:01:03.929Z,17.3
2022-11-21T02:03:51.599Z,18.2
2022-11-21T02:06:41.799Z,19.5
2022-11-21T02:09:29.619Z,18.6
2022-11-21T02:12:20.858Z,18
2022-11-21T02:15:14.686Z,21.5
2022-11-21T02:18:03.093Z,18.8
2022-11-21T02:20:54.394Z,18.9
2022-11-21T02:23:48.091Z,18.1
2022-11-21T02:26:43.499Z,19
2022-11-21T02:29:33.347Z,19.3
2022-11-21T02:32:20.732Z,19.9
2022-11-21T02:35:09.376Z,17.7
2022-11-21T02:37:56.741Z,17.7
2022-11-21T02:40:47.115Z,19.5
2022-11-21T02:43:41.006Z,21.3
2022-11-21T02:46:34.426Z,18.7
2022-11-21T02:49:30.870Z,18.9
2022-11-21T02:52:25.802Z,18.1
2022-11-21T02:55:13.135Z,18.9
2022-11-21T02:58:04.824Z,19.3
2022-11-21T03:00:53.441Z,20
2022-11-21T03:03:41.541Z,18.7
2022-11-21T03:06:28.847Z,19.9
2022-11-21T03:09:16.137Z,20
2022-11-21T03:12:03.482Z,19.4
2022-11-21T03:14:51.911Z,19.3
2022-11-21T03:17:40.245Z,16.4
2022-11-21T03:20:28.028Z,18.4
2022-11-21T03:23:16.501Z,19.3
2022-11-21T03:26:03.846Z,18.8
2022-11-21T03:28:51.584Z,19.5
2022-11-21T03:31:39.930Z,17.2
2022-11-21T03:34:27.460Z,18.7
2022-11-21T03:37:15.037Z,17.5
2022-11-21T03:40:02.646Z,17
2022-11-21T03:42:52.177Z,17.6
2022-11-21T03:45:40.520Z,16
2022-11-21T03:48:30.614Z,18.1
2022-11-21T03:51:18.365Z,19.1
2022-11-21T03:54:06.446Z,16.7
2022-11-21T03:56:54.821Z,17.9
2022-11-21T03:59:42.105Z,16.6
2022-11-21T04:02:29.789Z,16.8
2022-11-21T04:05:17.178Z,16.9
2022-11-21T04:08:04.663Z,18
2022-11-21T04:10:51.958Z,17.2
2022-11-21T04:13:40.924Z,16.9
2022-11-21T04:16:28.373Z,16.6
2022-11-21T04:19:15.609Z,17.7
2022-11-21T04:22:02.860Z,15.9
2022-11-21T04:24:50.166Z,16.7
2022-11-21T04:27:37.830Z,15.5
2022-11-21T04:30:25.623Z,16.7
2022-11-21T04:33:14.279Z,16.1
2022-11-21T04:36:02.876Z,14.8
2022-11-21T04:38:50.401Z,15.1
2022-11-21T04:41:38.373Z,16.3
2022-11-21T04:44:26.034Z,16.4
2022-11-21T04:47:13.583Z,16.7
2022-11-21T04:50:00.884Z,17.9
2022-11-21T04:52:50.479Z,16.8
2022-11-21T04:55:39.909Z,16.2
2022-11-21T04:58:27.204Z,16.6
2022-11-21T05:01:14.543Z,17.5
2022-11-21T05:04:01.846Z,17.3
2022-11-21T05:06:49.499Z,17.7
2022-11-21T05:09:36.963Z,16.5
2022-11-21T05:12:24.326Z,18
2022-11-21T05:15:43.379Z,16.9
2022-11-21T05:18:31.040Z,17.8
2022-11-21T05:21:18.359Z,15.6
2022-11-21T05:24:05.535Z,17.2
2022-11-21T05:26:53.408Z,18.2
2022-11-21T05:29:41.741Z,20.4
2022-11-21T05:32:29.344Z,19.5
2022-11-21T05:35:16.716Z,20.7
2022-11-21T05:38:04.044Z,21.3
2022-11-21T05:40:51.577Z,23.2
2022-11-21T05:43:39.890Z,26
2022-11-21T05:46:34.685Z,23.2
2022-11-21T05:49:21.964Z,33.8
2022-11-21T05:52:09.290Z,37
2022-11-21T05:54:57.311Z,31.5
2022-11-21T05:57:46.606Z,25.5
2022-11-21T06:00:33.889Z,20
2022-11-21T06:03:21.589Z,18.3
2022-11-21T06:06:12.593Z,19.5
2022-11-21T06:09:01.144Z,20.4
2022-11-21T06:11:49.284Z,22.4
2022-11-21T06:14:36.749Z,19.2
2022-11-21T06:17:24.081Z,18
2022-11-21T06:20:11.381Z,18.9
2022-11-21T06:22:58.766Z,20.4
2022-11-21T06:25:46.160Z,19.9
2022-11-21T06:28:33.546Z,20.5
2022-11-21T06:31:22.835Z,20.5
2022-11-21T06:34:12.108Z,21.5
2022-11-21T06:36:59.373Z,22.1
2022-11-21T06:39:46.757Z,20.1
2022-11-21T06:42:34.109Z,19.5
2022-11-21T06:45:21.576Z,23.6
2022-11-21T06:48:08.833Z,23.7
2022-11-21T06:50:56.130Z,23.8
2022-11-21T06:53:43.599Z,22.2
2022-11-21T06:56:32.790Z,19.9
2022-11-21T06:59:20.063Z,21.3
2022-11-21T07:02:07.524Z,20.8
2022-11-21T07:04:57.585Z,22.6
2022-11-21T07:07:44.947Z,24
2022-11-21T07:10:32.385Z,21.8
2022-11-21T07:13:19.732Z,23.6
2022-11-21T07:16:07.239Z,25.5
2022-11-21T07:18:58.793Z,24.5
2022-11-21T07:21:46.096Z,22.8
2022-11-21T07:24:33.382Z,20.9
2022-11-21T07:27:20.598Z,22.6
2022-11-21T07:30:07.948Z,22.8
2022-11-21T07:32:56.239Z,25
2022-11-21T07:35:44.973Z,24.2
2022-11-21T07:38:32.221Z,23.7
2022-11-21T07:41:19.660Z,28.2
2022-11-21T07:44:07.081Z,29.4
2022-11-21T07:46:54.541Z,24.7
2022-11-21T07:49:42.404Z,21.9
2022-11-21T07:52:29.619Z,19.5
2022-11-21T07:55:17.122Z,24.9
2022-11-21T07:58:04.886Z,26.4
2022-11-21T08:00:54.432Z,35.8
2022-11-21T08:03:42.117Z,25.9
2022-11-21T08:06:29.516Z,23.1
2022-11-21T08:09:16.880Z,22.7
2022-11-21T08:12:04.011Z,22.4
2022-11-21T08:14:51.592Z,24.5
2022-11-21T08:17:39.959Z,26
2022-11-21T08:20:28.841Z,22.6
2022-11-21T08:23:16.158Z,26.6
2022-11-21T08:26:03.482Z,27.6
2022-11-21T08:28:59.797Z,24.6
2022-11-21T08:31:47.392Z,24.1
2022-11-21T08:34:34.603Z,24.4
2022-11-21T08:37:22.379Z,28.8
2022-11-21T08:40:09.619Z,26.7
2022-11-21T08:42:57.333Z,24.1
2022-11-21T08:45:45.500Z,25
2022-11-21T08:48:32.881Z,27.6
2022-11-21T08:51:20.300Z,25.5
2022-11-21T08:54:08.154Z,25.1
2022-11-21T08:56:55.729Z,26.7
2022-11-21T08:59:43.631Z,24.4
2022-11-21T09:02:31.105Z,23.5
2022-11-21T09:05:18.696Z,22.5
2022-11-21T09:08:06.202Z,23.9
2022-11-21T09:10:53.896Z,24.2
2022-11-21T09:13:42.362Z,24.2
2022-11-21T09:20:47.641Z,24.8
2022-11-21T09:23:35.061Z,23.2
2022-11-21T09:26:22.377Z,27.9
2022-11-21T09:29:09.630Z,23.2
2022-11-21T09:31:59.634Z,24.4
2022-11-21T09:34:47.036Z,23
2022-11-21T09:37:34.750Z,21.1
2022-11-21T09:40:22.601Z,23.7
2022-11-21T09:43:11.005Z,24.4
2022-11-21T09:46:11.351Z,24.8
2022-11-21T09:49:01.922Z,22.8
2022-11-21T09:51:54.678Z,24.1
2022-11-21T09:54:44.329Z,24.2
2022-11-21T09:57:35.804Z,25.2
2022-11-21T10:00:23.461Z,25.6
2022-11-21T10:07:18.425Z,25
2022-11-21T10:10:10.720Z,26.5
2022-11-21T10:13:21.146Z,27.2
2022-11-21T10:16:22.970Z,26.7
2022-11-21T10:19:18.973Z,24.4
2022-11-21T10:22:19.769Z,31.9
2022-11-21T10:25:27.172Z,52.8
2022-11-21T10:28:21.796Z,37.2
2022-11-21T10:31:18.840Z,32.3
2022-11-21T10:34:07.503Z,30.4
2022-11-21T10:36:59.393Z,30.6
2022-11-21T10:39:55.849Z,32.2
2022-11-21T10:42:59.478Z,26
2022-11-21T10:48:05.363Z,24.6
2022-11-21T10:50:55.483Z,24.7
2022-11-21T10:54:04.667Z,27.2
2022-11-21T10:57:28.312Z,24
2022-11-21T11:00:23.741Z,23.6
2022-11-21T11:03:12.458Z,25.2
2022-11-21T11:06:02.883Z,25.1
2022-11-21T11:08:50.376Z,24.7
2022-11-21T11:11:38.661Z,24.4
2022-11-21T11:14:26.186Z,26.5
2022-11-21T11:17:17.154Z,24.8
2022-11-21T11:20:14.432Z,25.2
2022-11-21T11:23:17.652Z,25
2022-11-21T11:26:13.009Z,25.8
2022-11-21T11:29:07.387Z,23.7
2022-11-21T11:32:00.034Z,25.4
2022-11-21T11:34:57.653Z,25.6
2022-11-21T11:37:47.514Z,22.7
2022-11-21T11:40:46.388Z,25.5
2022-11-21T11:43:33.605Z,27.9
2022-11-21T11:47:06.044Z,28.2
2022-11-21T11:50:18.660Z,26.9
2022-11-21T11:53:10.052Z,24.6
2022-11-21T11:56:03.300Z,28.4
2022-11-21T11:58:57.105Z,26.8
2022-11-21T12:01:52.400Z,28.2
2022-11-21T12:04:47.406Z,28.3
2022-11-21T12:08:38.830Z,28.3
2022-11-21T12:11:36.793Z,30
2022-11-21T12:14:52.098Z,28.5
2022-11-21T12:18:26.682Z,29
2022-11-21T12:21:22.109Z,29.8
2022-11-21T12:24:10.239Z,31
2022-11-21T12:26:58.121Z,28.8
2022-11-21T12:29:56.412Z,30.2
2022-11-21T12:33:08.535Z,28.8
2022-11-21T12:36:17.240Z,27.3
2022-11-21T12:39:16.793Z,29.2
2022-11-21T12:42:26.549Z,27.8
2022-11-21T12:45:40.841Z,26.9
2022-11-21T12:48:36.279Z,28.6
2022-11-21T12:52:10.852Z,28.5
2022-11-21T12:55:35.679Z,28.3
2022-11-21T12:58:24.826Z,27.1
2022-11-21T13:01:21.533Z,28.6
2022-11-21T13:04:20.490Z,29.5
2022-11-21T13:07:13.850Z,29.4
2022-11-21T13:10:02.187Z,26.7
2022-11-21T13:12:57.723Z,27.3
2022-11-21T13:15:55.199Z,29.6
2022-11-21T13:18:51.251Z,33.5
2022-11-21T13:21:41.476Z,31.2
2022-11-21T13:24:32.391Z,28.8
2022-11-21T13:27:55.032Z,26.8
2022-11-21T13:31:14.019Z,30
2022-11-21T13:34:18.231Z,29.8
2022-11-21T13:37:22.062Z,29.3
2022-11-21T13:40:46.541Z,26.1
2022-11-21T13:45:41.888Z,28.3
2022-11-21T13:48:32.928Z,29.2
2022-11-21T13:51:39.877Z,30
2022-11-21T13:54:37.581Z,30.4
2022-11-21T13:57:58.421Z,33
2022-11-21T14:00:59.162Z,33.5
2022-11-21T14:04:08.876Z,32.8
2022-11-21T14:07:20.055Z,34.4
2022-11-21T14:10:12.574Z,36.6
2022-11-21T14:13:15.542Z,35.4
2022-11-21T14:16:09.908Z,33
2022-11-21T14:19:11.081Z,32.9
2022-11-21T14:22:02.838Z,35.8
2022-11-21T14:24:50.192Z,35.5
2022-11-21T14:27:45.162Z,37.8
2022-11-21T14:30:38.020Z,34.6
2022-11-21T14:33:27.404Z,34.5
2022-11-21T14:36:17.845Z,36.3
2022-11-21T14:39:35.917Z,38.1
2022-11-21T14:42:26.752Z,33.1
2022-11-21T14:45:21.002Z,35.1
2022-11-21T14:48:09.954Z,35.9
2022-11-21T14:50:57.972Z,37.5
2022-11-21T14:53:47.122Z,37.4
2022-11-21T14:56:36.316Z,34.1
2022-11-21T14:59:26.377Z,37.6
2022-11-21T15:02:17.653Z,37.1
2022-11-21T15:05:06.907Z,39.5
2022-11-21T15:08:17.094Z,40.8
2022-11-21T15:11:22.542Z,39.3
2022-11-21T15:14:17.702Z,43
2022-11-21T15:17:10.607Z,45.9
2022-11-21T15:20:01.271Z,44.9
2022-11-21T15:22:52.971Z,41.6
2022-11-21T15:25:42.893Z,39.3
2022-11-21T15:28:31.849Z,40.6
2022-11-21T15:31:19.186Z,39.2
2022-11-21T15:34:35.186Z,39.6
2022-11-21T15:37:23.541Z,37.5
2022-11-21T15:40:12.345Z,38.7
2022-11-21T15:43:04.837Z,36.3
2022-11-21T15:45:54.202Z,34
2022-11-21T15:48:47.202Z,34.1
2022-11-21T15:52:00.089Z,37.2
2022-11-21T15:54:57.236Z,38.5
2022-11-21T15:57:44.472Z,34.2
2022-11-21T16:00:32.278Z,34.7
2022-11-21T16:03:20.187Z,33.4
2022-11-21T16:06:07.590Z,35.4
2022-11-21T16:08:55.209Z,35.3
2022-11-21T16:11:42.933Z,33.2
2022-11-21T16:14:30.499Z,30.7
2022-11-21T16:17:17.798Z,30.3
2022-11-21T16:20:05.403Z,33.9
2022-11-21T16:22:54.093Z,36.1
2022-11-21T16:25:42.471Z,37.7
2022-11-21T16:28:39.143Z,35.5
2022-11-21T16:31:26.477Z,35.5
2022-11-21T16:34:16.005Z,37.3
2022-11-21T16:37:07.586Z,37.9
2022-11-21T16:39:55.229Z,34.6
2022-11-21T16:42:42.527Z,36.3
2022-11-21T16:45:29.771Z,37
2022-11-21T16:48:17.851Z,40.7
2022-11-21T16:51:06.489Z,37.5
2022-11-21T16:53:57.045Z,37.9
2022-11-21T16:56:44.550Z,38.6
2022-11-21T16:59:31.940Z,35.4
2022-11-21T17:02:19.542Z,38.2
2022-11-21T17:05:07.294Z,41.9
2022-11-21T17:07:55.386Z,36.4
2022-11-21T17:10:43.538Z,36.7
2022-11-21T17:13:30.997Z,37.7
2022-11-21T17:16:18.515Z,37.6
2022-11-21T17:19:07.412Z,36.2
2022-11-21T17:21:56.885Z,36.3
2022-11-21T17:24:44.955Z,34.4
2022-11-21T17:27:32.335Z,35.7
2022-11-21T17:30:19.885Z,36.8
2022-11-21T17:33:07.285Z,36
2022-11-21T17:35:54.770Z,34
2022-11-21T17:38:42.140Z,36.2
2022-11-21T17:41:31.391Z,36
2022-11-21T17:44:18.699Z,36.1
2022-11-21T17:47:06.555Z,36.1
2022-11-21T17:49:54.244Z,34.4
2022-11-21T17:52:42.115Z,40.1
2022-11-21T17:55:30.458Z,48.2
2022-11-21T17:58:17.812Z,40.2
2022-11-21T18:01:05.310Z,38
2022-11-21T18:03:55.855Z,33.9
2022-11-21T18:06:45.062Z,36.7
2022-11-21T18:09:32.804Z,42.3
2022-11-21T18:12:20.105Z,25.4
2022-11-21T18:15:07.713Z,17.4
2022-11-21T18:17:55.867Z,16.2
2022-11-21T18:20:43.139Z,30.1
2022-11-21T18:23:30.616Z,32.1
2022-11-21T18:26:18.655Z,23.4
2022-11-21T18:29:35.579Z,16.4
2022-11-21T18:32:23.875Z,14.3
2022-11-21T18:35:11.113Z,11.7
2022-11-21T18:37:58.721Z,17
2022-11-21T18:40:46.024Z,25.1
2022-11-21T18:43:33.417Z,27.1
2022-11-21T18:46:20.882Z,27.7
2022-11-21T18:49:09.860Z,35.5
2022-11-21T18:51:57.185Z,33.4
2022-11-21T18:54:44.534Z,33.3
2022-11-21T18:57:32.117Z,34.1
2022-11-21T19:00:19.454Z,32.2
2022-11-21T19:03:07.064Z,32.1
2022-11-21T19:05:54.857Z,34.5
2022-11-21T19:08:42.570Z,36.5
2022-11-21T19:11:30.480Z,31.2
2022-11-21T19:14:17.809Z,35.7
2022-11-21T19:17:05.381Z,33.6
2022-11-21T19:19:53.021Z,35.3
2022-11-21T19:22:41.426Z,33
2022-11-21T19:25:28.715Z,32
2022-11-21T19:28:16.541Z,31.1
2022-11-21T19:31:03.853Z,29.9
2022-11-21T19:33:52.604Z,30.6
2022-11-21T19:36:41.114Z,26.7
2022-11-21T19:39:29.778Z,24.6
2022-11-21T19:42:17.377Z,21.3
2022-11-21T19:45:04.638Z,25.6
2022-11-21T19:47:53.642Z,23.4
2022-11-21T19:50:49.951Z,25.6
2022-11-21T19:53:41.693Z,25.4
2022-11-21T19:56:30.051Z,24.3
2022-11-21T19:59:18.029Z,27.8
2022-11-21T20:02:06.453Z,25
2022-11-21T20:05:01.514Z,23.8
2022-11-21T20:07:49.838Z,22.1
2022-11-21T20:10:37.138Z,26.9
2022-11-21T20:13:24.666Z,26.6
2022-11-21T20:16:11.993Z,27.6
2022-11-21T20:19:04.554Z,25.7
2022-11-21T20:21:54.599Z,28.2
2022-11-21T20:24:45.109Z,27.7
2022-11-21T20:27:36.275Z,27.7
2022-11-21T20:30:24.049Z,26.8
2022-11-21T20:33:12.371Z,24.1
2022-11-21T20:35:59.741Z,25.2
2022-11-21T20:38:50.189Z,28.3
2022-11-21T20:41:39.745Z,28.9
2022-11-21T20:45:20.242Z,27.6
2022-11-21T20:48:35.638Z,28.8
2022-11-21T20:54:41.735Z,25.7
2022-11-21T20:57:29.038Z,27.6
2022-11-21T21:00:16.396Z,28
2022-11-21T21:03:04.344Z,29.5
2022-11-21T21:05:51.793Z,27.9
2022-11-21T21:08:40.854Z,26.8
2022-11-21T21:11:50.517Z,26.2
2022-11-21T21:14:39.364Z,27.8
2022-11-21T21:17:26.725Z,26.8
2022-11-21T21:20:14.435Z,27.2
2022-11-21T21:23:01.900Z,27.2
2022-11-21T21:25:49.260Z,25.2
2022-11-21T21:28:36.557Z,26.2
2022-11-21T21:31:24.096Z,27.4
2022-11-21T21:34:12.926Z,28
2022-11-21T21:37:00.210Z,27.9
2022-11-21T21:39:47.618Z,26.9
2022-11-21T21:42:34.932Z,25.8
2022-11-21T21:45:22.155Z,29
2022-11-21T21:48:09.454Z,30.4
2022-11-21T21:50:56.913Z,34.9
2022-11-21T21:53:48.859Z,28.9
2022-11-21T21:56:38.458Z,30.5
2022-11-21T21:59:25.794Z,32.5
2022-11-21T22:02:13.203Z,25.5
2022-11-21T22:05:00.991Z,26.7
2022-11-21T22:07:48.681Z,24.1
2022-11-21T22:10:35.969Z,23.1
2022-11-21T22:13:23.554Z,24.5
2022-11-21T22:16:10.752Z,26
2022-11-21T22:18:59.141Z,25.1
2022-11-21T22:21:46.852Z,26.5
2022-11-21T22:24:34.173Z,26.3
2022-11-21T22:27:23.580Z,24.1
2022-11-21T22:30:10.907Z,26.4
2022-11-21T22:32:58.987Z,23.5
2022-11-21T22:35:46.432Z,22.4
2022-11-21T22:38:33.895Z,21.6
2022-11-21T22:41:21.716Z,21.9
2022-11-21T22:44:10.612Z,21.5
2022-11-21T22:46:58.281Z,20.8
2022-11-21T22:49:45.701Z,18.8
2022-11-21T22:52:33.135Z,18.8
2022-11-21T22:55:20.977Z,20.1
2022-11-21T22:58:08.738Z,19.1
2022-11-21T23:00:56.056Z,17.7
2022-11-21T23:03:45.535Z,18.2
2022-11-21T23:06:33.734Z,17.2
2022-11-21T23:09:21.068Z,17.1
2022-11-21T23:12:08.425Z,19.3
2022-11-21T23:14:56.080Z,16.9
2022-11-21T23:17:47.124Z,17.9
2022-11-21T23:20:37.344Z,17.6
2022-11-21T23:23:27.160Z,15.5
2022-11-21T23:26:15.397Z,16.5
2022-11-21T23:29:08.251Z,15.7
2022-11-21T23:31:55.965Z,16.2
2022-11-21T23:34:43.277Z,18.5
2022-11-21T23:37:30.519Z,16.1
2022-11-21T23:40:17.909Z,13.9
2022-11-21T23:43:05.264Z,16.5
2022-11-21T23:45:52.828Z,16.5
2022-11-21T23:48:41.309Z,16.9
2022-11-21T23:51:28.516Z,18.1
2022-11-21T23:54:15.832Z,18.4
2022-11-21T23:57:03.103Z,17.6
2022-11-21T23:59:50.483Z,17.5
